Terminal Aerodrome Forecast
Issued by NWS Wilmington, OH

Current Version | Previous Version | Text Only | Print | Product List | Glossary Off
Versions: 1 2 3 4 5 6 7 8 9 10 11 12 13 14 15 16 17 18 19

000
FTUS41 KILN 192114 AAA
TAFCMH
TAF AMD
KCMH 192114Z 1921/2018 22006KT P6SM VCSH BKN060
     FM192200 18004KT P6SM VCSH BKN110
     FM200300 VRB03KT P6SM BKN140
     FM201100 VRB03KT 5SM BR BKN025
     FM201500 24006KT P6SM BKN035=

USA.gov is the U.S. government's official web portal to all federal, state and local government web resources and services.